sensor_id;sensor_type;location;lat;lon;timestamp;temperature;humidity
8862;DHT22;4799;50.996;4.754;2023-01-19T00:00:09;0.70;99.90
8862;DHT22;4799;50.996;4.754;2023-01-19T00:02:36;0.70;99.90
8862;DHT22;4799;50.996;4.754;2023-01-19T00:05:05;0.70;99.90
8862;DHT22;4799;50.996;4.754;2023-01-19T00:07:31;0.70;99.90
8862;DHT22;4799;50.996;4.754;2023-01-19T00:09:57;0.70;99.90
8862;DHT22;4799;50.996;4.754;2023-01-19T00:12:24;0.70;99.90
8862;DHT22;4799;50.996;4.754;2023-01-19T00:14:49;0.70;99.90
8862;DHT22;4799;50.996;4.754;2023-01-19T00:17:15;0.60;99.90
8862;DHT22;4799;50.996;4.754;2023-01-19T00:19:41;0.60;99.90
8862;DHT22;4799;50.996;4.754;2023-01-19T00:22:07;0.50;99.90
8862;DHT22;4799;50.996;4.754;2023-01-19T00:24:33;0.50;99.90
8862;DHT22;4799;50.996;4.754;2023-01-19T00:26:58;0.50;99.90
8862;DHT22;4799;50.996;4.754;2023-01-19T00:29:24;0.60;99.90
8862;DHT22;4799;50.996;4.754;2023-01-19T00:31:50;0.70;99.90
8862;DHT22;4799;50.996;4.754;2023-01-19T00:34:16;0.80;99.90
8862;DHT22;4799;50.996;4.754;2023-01-19T00:36:42;0.90;99.90
8862;DHT22;4799;50.996;4.754;2023-01-19T00:39:08;0.80;99.90
8862;DHT22;4799;50.996;4.754;2023-01-19T00:41:33;0.80;99.90
8862;DHT22;4799;50.996;4.754;2023-01-19T00:44:17;0.70;99.90
8862;DHT22;4799;50.996;4.754;2023-01-19T00:46:43;0.70;99.90
8862;DHT22;4799;50.996;4.754;2023-01-19T00:49:09;0.60;99.90
8862;DHT22;4799;50.996;4.754;2023-01-19T00:51:35;0.60;99.90
8862;DHT22;4799;50.996;4.754;2023-01-19T00:54:00;0.50;99.90
8862;DHT22;4799;50.996;4.754;2023-01-19T00:56:32;0.50;99.90
8862;DHT22;4799;50.996;4.754;2023-01-19T00:58:58;0.50;99.90
8862;DHT22;4799;50.996;4.754;2023-01-19T01:01:25;0.50;99.90
8862;DHT22;4799;50.996;4.754;2023-01-19T01:03:51;0.50;99.90
8862;DHT22;4799;50.996;4.754;2023-01-19T01:06:19;0.40;99.90
8862;DHT22;4799;50.996;4.754;2023-01-19T01:08:45;0.40;99.90
8862;DHT22;4799;50.996;4.754;2023-01-19T01:11:10;0.40;99.90
8862;DHT22;4799;50.996;4.754;2023-01-19T01:13:36;0.40;99.90
8862;DHT22;4799;50.996;4.754;2023-01-19T01:16:02;0.30;99.90
8862;DHT22;4799;50.996;4.754;2023-01-19T01:18:28;0.30;99.90
8862;DHT22;4799;50.996;4.754;2023-01-19T01:21:05;0.30;99.90
8862;DHT22;4799;50.996;4.754;2023-01-19T01:23:31;0.20;99.90
8862;DHT22;4799;50.996;4.754;2023-01-19T01:25:57;0.30;99.90
8862;DHT22;4799;50.996;4.754;2023-01-19T01:28:23;0.20;99.90
8862;DHT22;4799;50.996;4.754;2023-01-19T01:30:52;0.20;99.90
8862;DHT22;4799;50.996;4.754;2023-01-19T01:33:18;0.20;99.90
8862;DHT22;4799;50.996;4.754;2023-01-19T01:35:47;0.20;99.90
8862;DHT22;4799;50.996;4.754;2023-01-19T01:38:14;0.20;99.90
8862;DHT22;4799;50.996;4.754;2023-01-19T01:40:41;0.20;99.90
8862;DHT22;4799;50.996;4.754;2023-01-19T01:43:15;0.20;99.90
8862;DHT22;4799;50.996;4.754;2023-01-19T01:45:43;0.20;99.90
8862;DHT22;4799;50.996;4.754;2023-01-19T01:48:25;0.10;99.90
8862;DHT22;4799;50.996;4.754;2023-01-19T01:51:04;0.10;99.90
8862;DHT22;4799;50.996;4.754;2023-01-19T01:53:58;0.10;99.90
8862;DHT22;4799;50.996;4.754;2023-01-19T01:56:31;0.10;99.90
8862;DHT22;4799;50.996;4.754;2023-01-19T01:59:01;0.10;99.90
8862;DHT22;4799;50.996;4.754;2023-01-19T02:01:29;0.10;99.90
8862;DHT22;4799;50.996;4.754;2023-01-19T02:04:13;0.00;99.90
8862;DHT22;4799;50.996;4.754;2023-01-19T02:06:39;0.10;99.90
8862;DHT22;4799;50.996;4.754;2023-01-19T02:09:24;0.10;99.90
8862;DHT22;4799;50.996;4.754;2023-01-19T02:12:10;0.00;99.90
8862;DHT22;4799;50.996;4.754;2023-01-19T02:14:55;0.00;99.90
8862;DHT22;4799;50.996;4.754;2023-01-19T02:17:21;0.00;99.90
8862;DHT22;4799;50.996;4.754;2023-01-19T02:19:46;0.00;99.90
8862;DHT22;4799;50.996;4.754;2023-01-19T02:24:38;0.00;99.90
8862;DHT22;4799;50.996;4.754;2023-01-19T02:27:05;0.00;99.90
8862;DHT22;4799;50.996;4.754;2023-01-19T02:29:32;0.10;99.90
8862;DHT22;4799;50.996;4.754;2023-01-19T02:31:58;0.10;99.90
8862;DHT22;4799;50.996;4.754;2023-01-19T02:34:25;0.20;99.90
8862;DHT22;4799;50.996;4.754;2023-01-19T02:36:56;0.20;99.90
8862;DHT22;4799;50.996;4.754;2023-01-19T02:39:44;0.20;99.90
8862;DHT22;4799;50.996;4.754;2023-01-19T02:42:17;0.30;99.90
8862;DHT22;4799;50.996;4.754;2023-01-19T02:44:47;0.30;99.90
8862;DHT22;4799;50.996;4.754;2023-01-19T02:47:14;0.30;99.90
8862;DHT22;4799;50.996;4.754;2023-01-19T02:49:40;0.40;99.90
8862;DHT22;4799;50.996;4.754;2023-01-19T02:52:11;0.40;99.90
8862;DHT22;4799;50.996;4.754;2023-01-19T02:55:04;0.50;99.90
8862;DHT22;4799;50.996;4.754;2023-01-19T02:57:47;0.60;99.90
8862;DHT22;4799;50.996;4.754;2023-01-19T03:01:08;0.60;99.90
8862;DHT22;4799;50.996;4.754;2023-01-19T03:03:24;0.60;99.90
8862;DHT22;4799;50.996;4.754;2023-01-19T03:06:02;0.70;99.90
8862;DHT22;4799;50.996;4.754;2023-01-19T03:08:41;0.70;99.90
8862;DHT22;4799;50.996;4.754;2023-01-19T03:11:10;0.80;99.90
8862;DHT22;4799;50.996;4.754;2023-01-19T03:13:47;0.90;99.90
8862;DHT22;4799;50.996;4.754;2023-01-19T03:16:29;1.00;99.90
8862;DHT22;4799;50.996;4.754;2023-01-19T03:19:04;1.00;99.90
8862;DHT22;4799;50.996;4.754;2023-01-19T03:21:35;1.10;99.90
8862;DHT22;4799;50.996;4.754;2023-01-19T03:24:03;1.20;99.90
8862;DHT22;4799;50.996;4.754;2023-01-19T03:26:38;1.20;99.90
8862;DHT22;4799;50.996;4.754;2023-01-19T03:29:06;1.30;99.90
8862;DHT22;4799;50.996;4.754;2023-01-19T03:31:33;1.30;99.90
8862;DHT22;4799;50.996;4.754;2023-01-19T03:34:03;1.40;99.90
8862;DHT22;4799;50.996;4.754;2023-01-19T03:36:36;1.40;99.90
8862;DHT22;4799;50.996;4.754;2023-01-19T03:39:06;1.40;99.90
8862;DHT22;4799;50.996;4.754;2023-01-19T03:41:35;1.30;99.90
8862;DHT22;4799;50.996;4.754;2023-01-19T03:44:02;1.30;99.90
8862;DHT22;4799;50.996;4.754;2023-01-19T03:46:32;1.30;99.90
8862;DHT22;4799;50.996;4.754;2023-01-19T03:48:58;1.30;99.90
8862;DHT22;4799;50.996;4.754;2023-01-19T03:51:25;1.20;99.90
8862;DHT22;4799;50.996;4.754;2023-01-19T03:53:51;1.20;99.90
8862;DHT22;4799;50.996;4.754;2023-01-19T03:56:22;1.20;99.90
8862;DHT22;4799;50.996;4.754;2023-01-19T03:58:49;1.20;99.90
8862;DHT22;4799;50.996;4.754;2023-01-19T04:01:15;1.10;99.90
8862;DHT22;4799;50.996;4.754;2023-01-19T04:03:42;1.10;99.90
8862;DHT22;4799;50.996;4.754;2023-01-19T04:06:08;1.10;99.90
8862;DHT22;4799;50.996;4.754;2023-01-19T04:08:35;1.10;99.90
8862;DHT22;4799;50.996;4.754;2023-01-19T04:11:01;1.00;99.90
8862;DHT22;4799;50.996;4.754;2023-01-19T04:13:27;1.00;99.90
8862;DHT22;4799;50.996;4.754;2023-01-19T04:15:58;1.00;99.90
8862;DHT22;4799;50.996;4.754;2023-01-19T04:18:29;1.00;99.90
8862;DHT22;4799;50.996;4.754;2023-01-19T04:20:58;0.90;99.90
8862;DHT22;4799;50.996;4.754;2023-01-19T04:23:24;0.90;99.90
8862;DHT22;4799;50.996;4.754;2023-01-19T04:25:50;0.90;99.90
8862;DHT22;4799;50.996;4.754;2023-01-19T04:28:21;0.90;99.90
8862;DHT22;4799;50.996;4.754;2023-01-19T04:30:49;0.90;99.90
8862;DHT22;4799;50.996;4.754;2023-01-19T04:33:16;0.80;99.90
8862;DHT22;4799;50.996;4.754;2023-01-19T04:35:43;0.90;99.90
8862;DHT22;4799;50.996;4.754;2023-01-19T04:38:09;0.80;99.90
8862;DHT22;4799;50.996;4.754;2023-01-19T04:40:35;0.80;99.90
8862;DHT22;4799;50.996;4.754;2023-01-19T04:43:01;0.80;99.90
8862;DHT22;4799;50.996;4.754;2023-01-19T04:45:26;0.80;99.90
8862;DHT22;4799;50.996;4.754;2023-01-19T04:47:52;0.80;99.90
8862;DHT22;4799;50.996;4.754;2023-01-19T04:50:18;0.90;99.90
8862;DHT22;4799;50.996;4.754;2023-01-19T04:52:44;0.80;99.90
8862;DHT22;4799;50.996;4.754;2023-01-19T04:55:10;0.80;99.90
8862;DHT22;4799;50.996;4.754;2023-01-19T04:57:37;0.90;99.90
8862;DHT22;4799;50.996;4.754;2023-01-19T05:00:04;0.90;99.90
8862;DHT22;4799;50.996;4.754;2023-01-19T05:02:31;0.90;99.90
8862;DHT22;4799;50.996;4.754;2023-01-19T05:04:57;0.90;99.90
8862;DHT22;4799;50.996;4.754;2023-01-19T05:07:23;0.80;99.90
8862;DHT22;4799;50.996;4.754;2023-01-19T05:09:49;0.80;99.90
8862;DHT22;4799;50.996;4.754;2023-01-19T05:12:15;0.80;99.90
8862;DHT22;4799;50.996;4.754;2023-01-19T05:14:40;0.90;99.90
8862;DHT22;4799;50.996;4.754;2023-01-19T05:17:08;0.80;99.90
8862;DHT22;4799;50.996;4.754;2023-01-19T05:19:33;0.80;99.90
8862;DHT22;4799;50.996;4.754;2023-01-19T05:22:04;0.80;99.90
8862;DHT22;4799;50.996;4.754;2023-01-19T05:24:30;0.80;99.90
8862;DHT22;4799;50.996;4.754;2023-01-19T05:26:56;0.80;99.90
8862;DHT22;4799;50.996;4.754;2023-01-19T05:29:22;0.90;99.90
8862;DHT22;4799;50.996;4.754;2023-01-19T05:31:48;0.90;99.90
8862;DHT22;4799;50.996;4.754;2023-01-19T05:34:14;0.80;99.90
8862;DHT22;4799;50.996;4.754;2023-01-19T05:36:40;0.80;99.90
8862;DHT22;4799;50.996;4.754;2023-01-19T05:39:06;0.80;99.90
8862;DHT22;4799;50.996;4.754;2023-01-19T05:41:32;0.80;99.90
8862;DHT22;4799;50.996;4.754;2023-01-19T05:43:58;0.80;99.90
8862;DHT22;4799;50.996;4.754;2023-01-19T05:46:24;0.70;99.90
8862;DHT22;4799;50.996;4.754;2023-01-19T05:48:49;0.80;99.90
8862;DHT22;4799;50.996;4.754;2023-01-19T05:51:15;0.70;99.90
8862;DHT22;4799;50.996;4.754;2023-01-19T05:53:41;0.70;99.90
8862;DHT22;4799;50.996;4.754;2023-01-19T05:56:08;0.70;99.90
8862;DHT22;4799;50.996;4.754;2023-01-19T05:58:36;0.70;99.90
8862;DHT22;4799;50.996;4.754;2023-01-19T06:01:08;0.60;99.90
8862;DHT22;4799;50.996;4.754;2023-01-19T06:03:35;0.60;99.90
8862;DHT22;4799;50.996;4.754;2023-01-19T06:06:02;0.60;99.90
8862;DHT22;4799;50.996;4.754;2023-01-19T06:08:28;0.60;99.90
8862;DHT22;4799;50.996;4.754;2023-01-19T06:10:54;0.60;99.90
8862;DHT22;4799;50.996;4.754;2023-01-19T06:13:20;0.60;99.90
8862;DHT22;4799;50.996;4.754;2023-01-19T06:15:46;0.50;99.90
8862;DHT22;4799;50.996;4.754;2023-01-19T06:18:12;0.50;99.90
8862;DHT22;4799;50.996;4.754;2023-01-19T06:20:41;0.50;99.90
8862;DHT22;4799;50.996;4.754;2023-01-19T06:23:07;0.50;99.90
8862;DHT22;4799;50.996;4.754;2023-01-19T06:25:33;0.50;99.90
8862;DHT22;4799;50.996;4.754;2023-01-19T06:27:58;0.40;99.90
8862;DHT22;4799;50.996;4.754;2023-01-19T06:30:24;0.40;99.90
8862;DHT22;4799;50.996;4.754;2023-01-19T06:32:52;0.40;99.90
8862;DHT22;4799;50.996;4.754;2023-01-19T06:35:18;0.30;99.90
8862;DHT22;4799;50.996;4.754;2023-01-19T06:37:43;0.20;99.90
8862;DHT22;4799;50.996;4.754;2023-01-19T06:40:10;0.30;99.90
8862;DHT22;4799;50.996;4.754;2023-01-19T06:42:36;0.20;99.90
8862;DHT22;4799;50.996;4.754;2023-01-19T06:45:02;0.10;99.90
8862;DHT22;4799;50.996;4.754;2023-01-19T06:47:28;0.10;99.90
8862;DHT22;4799;50.996;4.754;2023-01-19T06:49:54;0.10;99.90
8862;DHT22;4799;50.996;4.754;2023-01-19T06:52:21;0.10;99.90
8862;DHT22;4799;50.996;4.754;2023-01-19T06:54:46;0.00;99.90
8862;DHT22;4799;50.996;4.754;2023-01-19T06:57:13;0.00;99.90
8862;DHT22;4799;50.996;4.754;2023-01-19T06:59:38;-0.10;99.90
8862;DHT22;4799;50.996;4.754;2023-01-19T07:02:05;0.00;99.90
8862;DHT22;4799;50.996;4.754;2023-01-19T07:04:30;0.00;99.90
8862;DHT22;4799;50.996;4.754;2023-01-19T07:06:56;0.00;99.90
8862;DHT22;4799;50.996;4.754;2023-01-19T07:09:22;-0.10;99.90
8862;DHT22;4799;50.996;4.754;2023-01-19T07:11:50;-0.10;99.90
8862;DHT22;4799;50.996;4.754;2023-01-19T07:14:16;-0.10;99.90
8862;DHT22;4799;50.996;4.754;2023-01-19T07:16:41;-0.10;99.90
8862;DHT22;4799;50.996;4.754;2023-01-19T07:19:08;-0.10;99.90
8862;DHT22;4799;50.996;4.754;2023-01-19T07:21:35;-0.10;99.90
8862;DHT22;4799;50.996;4.754;2023-01-19T07:24:01;-0.20;99.90
8862;DHT22;4799;50.996;4.754;2023-01-19T07:26:27;-0.10;99.90
8862;DHT22;4799;50.996;4.754;2023-01-19T07:28:52;-0.20;99.90
8862;DHT22;4799;50.996;4.754;2023-01-19T07:31:19;-0.20;99.90
8862;DHT22;4799;50.996;4.754;2023-01-19T07:33:45;-0.20;99.90
8862;DHT22;4799;50.996;4.754;2023-01-19T07:36:11;-0.20;99.90
8862;DHT22;4799;50.996;4.754;2023-01-19T07:38:38;-0.10;99.90
8862;DHT22;4799;50.996;4.754;2023-01-19T07:41:08;-0.10;99.90
8862;DHT22;4799;50.996;4.754;2023-01-19T07:43:34;-0.10;99.90
8862;DHT22;4799;50.996;4.754;2023-01-19T07:46:02;0.00;99.90
8862;DHT22;4799;50.996;4.754;2023-01-19T07:48:28;0.00;99.90
8862;DHT22;4799;50.996;4.754;2023-01-19T07:51:01;0.10;99.90
8862;DHT22;4799;50.996;4.754;2023-01-19T07:53:30;0.10;99.90
8862;DHT22;4799;50.996;4.754;2023-01-19T07:55:56;0.20;99.90
8862;DHT22;4799;50.996;4.754;2023-01-19T07:58:23;0.20;99.90
8862;DHT22;4799;50.996;4.754;2023-01-19T08:00:49;0.20;99.90
8862;DHT22;4799;50.996;4.754;2023-01-19T08:03:15;0.20;99.90
8862;DHT22;4799;50.996;4.754;2023-01-19T08:05:42;0.10;99.90
8862;DHT22;4799;50.996;4.754;2023-01-19T08:08:08;0.10;99.90
8862;DHT22;4799;50.996;4.754;2023-01-19T08:10:35;0.20;99.90
8862;DHT22;4799;50.996;4.754;2023-01-19T08:13:01;0.20;99.90
8862;DHT22;4799;50.996;4.754;2023-01-19T08:15:27;0.20;99.90
8862;DHT22;4799;50.996;4.754;2023-01-19T08:17:57;0.20;99.90
8862;DHT22;4799;50.996;4.754;2023-01-19T08:20:24;0.30;99.90
8862;DHT22;4799;50.996;4.754;2023-01-19T08:22:49;0.30;99.90
8862;DHT22;4799;50.996;4.754;2023-01-19T08:25:15;0.30;99.90
8862;DHT22;4799;50.996;4.754;2023-01-19T08:27:42;0.30;99.90
8862;DHT22;4799;50.996;4.754;2023-01-19T08:30:09;0.30;99.90
8862;DHT22;4799;50.996;4.754;2023-01-19T08:32:35;0.30;99.90
8862;DHT22;4799;50.996;4.754;2023-01-19T08:35:01;0.30;99.90
8862;DHT22;4799;50.996;4.754;2023-01-19T08:37:26;0.30;99.90
8862;DHT22;4799;50.996;4.754;2023-01-19T08:39:52;0.30;99.90
8862;DHT22;4799;50.996;4.754;2023-01-19T08:42:18;0.40;99.90
8862;DHT22;4799;50.996;4.754;2023-01-19T08:44:44;0.40;99.90
8862;DHT22;4799;50.996;4.754;2023-01-19T08:47:09;0.50;99.90
8862;DHT22;4799;50.996;4.754;2023-01-19T08:49:35;0.50;99.90
8862;DHT22;4799;50.996;4.754;2023-01-19T08:52:01;0.50;99.90
8862;DHT22;4799;50.996;4.754;2023-01-19T08:54:27;0.60;99.90
8862;DHT22;4799;50.996;4.754;2023-01-19T08:56:53;0.60;99.90
8862;DHT22;4799;50.996;4.754;2023-01-19T08:59:19;0.70;99.90
8862;DHT22;4799;50.996;4.754;2023-01-19T09:01:44;0.80;99.90
8862;DHT22;4799;50.996;4.754;2023-01-19T09:04:10;0.80;99.90
8862;DHT22;4799;50.996;4.754;2023-01-19T09:06:36;0.90;99.90
8862;DHT22;4799;50.996;4.754;2023-01-19T09:09:02;1.00;99.90
8862;DHT22;4799;50.996;4.754;2023-01-19T09:11:28;1.10;99.90
8862;DHT22;4799;50.996;4.754;2023-01-19T09:13:55;1.20;99.90
8862;DHT22;4799;50.996;4.754;2023-01-19T09:16:22;1.30;99.90
8862;DHT22;4799;50.996;4.754;2023-01-19T09:18:48;1.40;99.90
8862;DHT22;4799;50.996;4.754;2023-01-19T09:21:13;1.40;99.90
8862;DHT22;4799;50.996;4.754;2023-01-19T09:23:39;1.40;99.90
8862;DHT22;4799;50.996;4.754;2023-01-19T09:26:05;1.40;99.90
8862;DHT22;4799;50.996;4.754;2023-01-19T09:28:32;1.50;99.90
8862;DHT22;4799;50.996;4.754;2023-01-19T09:30:58;1.60;99.90
8862;DHT22;4799;50.996;4.754;2023-01-19T09:33:24;1.70;99.90
8862;DHT22;4799;50.996;4.754;2023-01-19T09:35:50;1.80;99.90
8862;DHT22;4799;50.996;4.754;2023-01-19T09:38:17;1.90;99.90
8862;DHT22;4799;50.996;4.754;2023-01-19T09:40:53;2.00;99.90
8862;DHT22;4799;50.996;4.754;2023-01-19T09:43:41;2.10;99.90
8862;DHT22;4799;50.996;4.754;2023-01-19T09:46:14;2.20;99.90
8862;DHT22;4799;50.996;4.754;2023-01-19T09:48:51;2.20;99.90
8862;DHT22;4799;50.996;4.754;2023-01-19T09:51:18;2.10;99.90
8862;DHT22;4799;50.996;4.754;2023-01-19T09:56:16;2.10;99.90
8862;DHT22;4799;50.996;4.754;2023-01-19T09:58:43;2.00;99.90
8862;DHT22;4799;50.996;4.754;2023-01-19T10:06:38;1.90;99.90
8862;DHT22;4799;50.996;4.754;2023-01-19T10:10:09;2.00;99.90
8862;DHT22;4799;50.996;4.754;2023-01-19T10:15:38;2.30;99.90
8862;DHT22;4799;50.996;4.754;2023-01-19T10:20:35;2.60;99.90
8862;DHT22;4799;50.996;4.754;2023-01-19T10:23:12;2.70;99.90
8862;DHT22;4799;50.996;4.754;2023-01-19T10:25:42;2.70;99.90
8862;DHT22;4799;50.996;4.754;2023-01-19T10:28:08;2.80;99.90
8862;DHT22;4799;50.996;4.754;2023-01-19T10:30:35;2.90;99.90
8862;DHT22;4799;50.996;4.754;2023-01-19T10:33:01;3.00;99.90
8862;DHT22;4799;50.996;4.754;2023-01-19T10:35:28;3.10;99.90
8862;DHT22;4799;50.996;4.754;2023-01-19T10:37:57;3.30;99.90
8862;DHT22;4799;50.996;4.754;2023-01-19T10:42:51;3.50;99.90
8862;DHT22;4799;50.996;4.754;2023-01-19T10:45:19;3.50;99.90
8862;DHT22;4799;50.996;4.754;2023-01-19T10:47:47;3.50;99.90
8862;DHT22;4799;50.996;4.754;2023-01-19T10:50:34;3.50;99.90
8862;DHT22;4799;50.996;4.754;2023-01-19T10:53:03;3.60;99.90
8862;DHT22;4799;50.996;4.754;2023-01-19T10:55:33;3.60;99.90
8862;DHT22;4799;50.996;4.754;2023-01-19T10:57:59;3.60;99.90
8862;DHT22;4799;50.996;4.754;2023-01-19T11:03:03;3.70;99.90
8862;DHT22;4799;50.996;4.754;2023-01-19T11:05:33;3.70;99.90
8862;DHT22;4799;50.996;4.754;2023-01-19T11:07:59;3.70;99.90
8862;DHT22;4799;50.996;4.754;2023-01-19T11:10:27;3.70;99.90
8862;DHT22;4799;50.996;4.754;2023-01-19T11:13:13;3.70;99.90
8862;DHT22;4799;50.996;4.754;2023-01-19T11:18:23;4.00;99.90
8862;DHT22;4799;50.996;4.754;2023-01-19T11:20:53;4.10;99.90
8862;DHT22;4799;50.996;4.754;2023-01-19T11:23:32;4.20;99.90
8862;DHT22;4799;50.996;4.754;2023-01-19T11:26:00;4.10;99.90
8862;DHT22;4799;50.996;4.754;2023-01-19T11:28:35;4.20;99.90
8862;DHT22;4799;50.996;4.754;2023-01-19T11:33:51;4.20;99.90
8862;DHT22;4799;50.996;4.754;2023-01-19T11:36:22;4.20;99.90
8862;DHT22;4799;50.996;4.754;2023-01-19T11:38:51;4.20;99.90
8862;DHT22;4799;50.996;4.754;2023-01-19T11:41:30;4.20;99.90
8862;DHT22;4799;50.996;4.754;2023-01-19T11:44:19;4.20;99.90
8862;DHT22;4799;50.996;4.754;2023-01-19T11:46:51;4.10;99.90
8862;DHT22;4799;50.996;4.754;2023-01-19T11:49:22;4.00;99.90
8862;DHT22;4799;50.996;4.754;2023-01-19T11:52:03;3.90;99.90
8862;DHT22;4799;50.996;4.754;2023-01-19T11:54:44;3.80;99.90
8862;DHT22;4799;50.996;4.754;2023-01-19T11:57:14;3.80;99.90
8862;DHT22;4799;50.996;4.754;2023-01-19T11:59:42;3.80;99.90
8862;DHT22;4799;50.996;4.754;2023-01-19T12:02:21;3.90;99.90
8862;DHT22;4799;50.996;4.754;2023-01-19T12:04:49;4.00;99.90
8862;DHT22;4799;50.996;4.754;2023-01-19T12:07:22;4.00;99.90
8862;DHT22;4799;50.996;4.754;2023-01-19T12:09:54;3.90;99.90
8862;DHT22;4799;50.996;4.754;2023-01-19T12:12:32;4.00;99.90
8862;DHT22;4799;50.996;4.754;2023-01-19T12:15:04;4.10;99.90
8862;DHT22;4799;50.996;4.754;2023-01-19T12:17:35;4.20;99.90
8862;DHT22;4799;50.996;4.754;2023-01-19T12:28:43;4.50;99.90
8862;DHT22;4799;50.996;4.754;2023-01-19T12:31:16;4.60;99.90
8862;DHT22;4799;50.996;4.754;2023-01-19T12:33:43;4.70;99.90
8862;DHT22;4799;50.996;4.754;2023-01-19T12:39:02;4.70;99.90
8862;DHT22;4799;50.996;4.754;2023-01-19T12:41:29;4.70;99.90
8862;DHT22;4799;50.996;4.754;2023-01-19T12:47:16;4.60;99.90
8862;DHT22;4799;50.996;4.754;2023-01-19T12:57:59;4.40;99.90
8862;DHT22;4799;50.996;4.754;2023-01-19T13:02:56;4.40;99.90
8862;DHT22;4799;50.996;4.754;2023-01-19T13:18:57;4.40;99.90
8862;DHT22;4799;50.996;4.754;2023-01-19T13:24:18;4.40;99.90
8862;DHT22;4799;50.996;4.754;2023-01-19T13:29:38;4.40;99.90
8862;DHT22;4799;50.996;4.754;2023-01-19T13:32:16;4.40;99.90
8862;DHT22;4799;50.996;4.754;2023-01-19T13:34:55;4.50;99.90
8862;DHT22;4799;50.996;4.754;2023-01-19T13:37:34;4.50;99.90
8862;DHT22;4799;50.996;4.754;2023-01-19T13:40:01;4.50;99.90
8862;DHT22;4799;50.996;4.754;2023-01-19T13:42:36;4.50;99.90
8862;DHT22;4799;50.996;4.754;2023-01-19T13:45:15;4.60;99.90
8862;DHT22;4799;50.996;4.754;2023-01-19T13:47:46;4.60;99.90
8862;DHT22;4799;50.996;4.754;2023-01-19T13:50:23;4.60;99.90
8862;DHT22;4799;50.996;4.754;2023-01-19T13:52:50;4.60;99.90
8862;DHT22;4799;50.996;4.754;2023-01-19T13:55:18;4.60;99.90
8862;DHT22;4799;50.996;4.754;2023-01-19T13:57:46;4.60;99.90
8862;DHT22;4799;50.996;4.754;2023-01-19T14:00:25;4.60;99.90
8862;DHT22;4799;50.996;4.754;2023-01-19T14:05:41;4.60;99.90
8862;DHT22;4799;50.996;4.754;2023-01-19T14:13:20;4.60;99.90
8862;DHT22;4799;50.996;4.754;2023-01-19T14:15:49;4.60;99.90
8862;DHT22;4799;50.996;4.754;2023-01-19T14:26:05;4.60;99.90
8862;DHT22;4799;50.996;4.754;2023-01-19T14:31:29;4.50;99.90
8862;DHT22;4799;50.996;4.754;2023-01-19T14:33:57;4.50;99.90
8862;DHT22;4799;50.996;4.754;2023-01-19T14:36:36;4.50;99.90
8862;DHT22;4799;50.996;4.754;2023-01-19T14:39:04;4.50;99.90
8862;DHT22;4799;50.996;4.754;2023-01-19T14:41:46;4.50;99.90
8862;DHT22;4799;50.996;4.754;2023-01-19T14:44:35;4.50;99.90
8862;DHT22;4799;50.996;4.754;2023-01-19T14:47:02;4.50;99.90
8862;DHT22;4799;50.996;4.754;2023-01-19T14:49:30;4.40;99.90
8862;DHT22;4799;50.996;4.754;2023-01-19T14:51:57;4.40;99.90
8862;DHT22;4799;50.996;4.754;2023-01-19T14:54:32;4.40;99.90
8862;DHT22;4799;50.996;4.754;2023-01-19T14:56:59;4.40;99.90
8862;DHT22;4799;50.996;4.754;2023-01-19T14:59:25;4.40;99.90
8862;DHT22;4799;50.996;4.754;2023-01-19T15:01:51;4.30;99.90
8862;DHT22;4799;50.996;4.754;2023-01-19T15:04:16;4.30;99.90
8862;DHT22;4799;50.996;4.754;2023-01-19T15:06:42;4.20;99.90
8862;DHT22;4799;50.996;4.754;2023-01-19T15:09:14;4.20;99.90
8862;DHT22;4799;50.996;4.754;2023-01-19T15:11:41;4.00;99.90
8862;DHT22;4799;50.996;4.754;2023-01-19T15:14:12;3.90;99.90
8862;DHT22;4799;50.996;4.754;2023-01-19T15:16:39;3.80;99.90
8862;DHT22;4799;50.996;4.754;2023-01-19T15:19:05;3.60;99.90
8862;DHT22;4799;50.996;4.754;2023-01-19T15:21:30;3.50;99.90
8862;DHT22;4799;50.996;4.754;2023-01-19T15:23:56;3.40;99.90
8862;DHT22;4799;50.996;4.754;2023-01-19T15:26:25;3.30;99.90
8862;DHT22;4799;50.996;4.754;2023-01-19T15:28:51;3.30;99.90
8862;DHT22;4799;50.996;4.754;2023-01-19T15:31:22;3.20;99.90
8862;DHT22;4799;50.996;4.754;2023-01-19T15:33:48;3.20;99.90
8862;DHT22;4799;50.996;4.754;2023-01-19T15:36:16;3.20;99.90
8862;DHT22;4799;50.996;4.754;2023-01-19T15:38:42;3.10;99.90
8862;DHT22;4799;50.996;4.754;2023-01-19T15:41:27;3.10;99.90
8862;DHT22;4799;50.996;4.754;2023-01-19T15:43:54;3.00;99.90
8862;DHT22;4799;50.996;4.754;2023-01-19T15:46:22;2.90;99.90
8862;DHT22;4799;50.996;4.754;2023-01-19T15:48:50;2.90;99.90
8862;DHT22;4799;50.996;4.754;2023-01-19T15:51:19;2.80;99.90
8862;DHT22;4799;50.996;4.754;2023-01-19T15:53:45;2.70;99.90
8862;DHT22;4799;50.996;4.754;2023-01-19T15:56:20;2.60;99.90
8862;DHT22;4799;50.996;4.754;2023-01-19T15:58:46;2.60;99.90
8862;DHT22;4799;50.996;4.754;2023-01-19T16:01:13;2.50;99.90
8862;DHT22;4799;50.996;4.754;2023-01-19T16:03:39;2.50;99.90
8862;DHT22;4799;50.996;4.754;2023-01-19T16:06:06;2.40;99.90
8862;DHT22;4799;50.996;4.754;2023-01-19T16:08:32;2.40;99.90
8862;DHT22;4799;50.996;4.754;2023-01-19T16:11:09;2.40;99.90
8862;DHT22;4799;50.996;4.754;2023-01-19T16:13:35;2.40;99.90
8862;DHT22;4799;50.996;4.754;2023-01-19T16:16:22;2.30;99.90
8862;DHT22;4799;50.996;4.754;2023-01-19T16:18:48;2.30;99.90
8862;DHT22;4799;50.996;4.754;2023-01-19T16:21:14;2.20;99.90
8862;DHT22;4799;50.996;4.754;2023-01-19T16:23:40;2.20;99.90
8862;DHT22;4799;50.996;4.754;2023-01-19T16:29:04;2.10;99.90
8862;DHT22;4799;50.996;4.754;2023-01-19T16:31:36;2.00;99.90
8862;DHT22;4799;50.996;4.754;2023-01-19T16:34:02;2.00;99.90
8862;DHT22;4799;50.996;4.754;2023-01-19T16:36:32;2.00;99.90
8862;DHT22;4799;50.996;4.754;2023-01-19T16:39:00;2.00;99.90
8862;DHT22;4799;50.996;4.754;2023-01-19T16:41:26;2.00;99.90
8862;DHT22;4799;50.996;4.754;2023-01-19T16:43:53;1.90;99.90
8862;DHT22;4799;50.996;4.754;2023-01-19T16:46:22;1.90;99.90
8862;DHT22;4799;50.996;4.754;2023-01-19T16:48:49;1.90;99.90
8862;DHT22;4799;50.996;4.754;2023-01-19T16:51:15;1.80;99.90
8862;DHT22;4799;50.996;4.754;2023-01-19T16:53:41;1.80;99.90
8862;DHT22;4799;50.996;4.754;2023-01-19T16:56:08;1.80;99.90
8862;DHT22;4799;50.996;4.754;2023-01-19T16:58:35;1.70;99.90
8862;DHT22;4799;50.996;4.754;2023-01-19T17:01:11;1.70;99.90
8862;DHT22;4799;50.996;4.754;2023-01-19T17:03:38;1.70;99.90
8862;DHT22;4799;50.996;4.754;2023-01-19T17:06:09;1.70;99.90
8862;DHT22;4799;50.996;4.754;2023-01-19T17:08:36;1.70;99.90
8862;DHT22;4799;50.996;4.754;2023-01-19T17:11:14;1.70;99.90
8862;DHT22;4799;50.996;4.754;2023-01-19T17:13:54;1.60;99.90
8862;DHT22;4799;50.996;4.754;2023-01-19T17:16:22;1.60;99.90
8862;DHT22;4799;50.996;4.754;2023-01-19T17:18:48;1.60;99.90
8862;DHT22;4799;50.996;4.754;2023-01-19T17:21:30;1.50;99.90
8862;DHT22;4799;50.996;4.754;2023-01-19T17:23:56;1.60;99.90
8862;DHT22;4799;50.996;4.754;2023-01-19T17:26:23;1.60;99.90
8862;DHT22;4799;50.996;4.754;2023-01-19T17:28:50;1.60;99.90
8862;DHT22;4799;50.996;4.754;2023-01-19T17:31:18;1.70;99.90
8862;DHT22;4799;50.996;4.754;2023-01-19T17:33:47;1.70;99.90
8862;DHT22;4799;50.996;4.754;2023-01-19T17:36:16;1.80;99.90
8862;DHT22;4799;50.996;4.754;2023-01-19T17:38:45;1.90;99.90
8862;DHT22;4799;50.996;4.754;2023-01-19T17:41:12;1.90;99.90
8862;DHT22;4799;50.996;4.754;2023-01-19T17:43:38;1.90;99.90
8862;DHT22;4799;50.996;4.754;2023-01-19T17:46:04;2.00;99.90
8862;DHT22;4799;50.996;4.754;2023-01-19T17:48:30;1.90;99.90
8862;DHT22;4799;50.996;4.754;2023-01-19T17:51:03;1.90;99.90
8862;DHT22;4799;50.996;4.754;2023-01-19T17:53:35;1.90;99.90
8862;DHT22;4799;50.996;4.754;2023-01-19T17:56:05;1.80;99.90
8862;DHT22;4799;50.996;4.754;2023-01-19T17:58:32;1.70;99.90
8862;DHT22;4799;50.996;4.754;2023-01-19T18:01:09;1.70;99.90